sensor_id;sensor_type;location;lat;lon;timestamp;pressure;altitude;pressure_sealevel;temperature;humidity
11212;BME280;5663;50.864;12.096;2023-06-10T00:00:56;99232.84;;;17.83;60.76
11212;BME280;5663;50.864;12.096;2023-06-10T00:03:27;99233.22;;;17.78;60.89
11212;BME280;5663;50.864;12.096;2023-06-10T00:05:56;99232.66;;;17.75;100.00
11212;BME280;5663;50.864;12.096;2023-06-10T00:08:28;99232.66;;;190.40;60.87
11212;BME280;5663;50.864;12.096;2023-06-10T00:11:04;99233.63;;;17.62;61.28
11212;BME280;5663;50.864;12.096;2023-06-10T00:13:33;99226.94;;;17.58;61.22
11212;BME280;5663;50.864;12.096;2023-06-10T00:16:05;99223.88;;;17.53;61.35
11212;BME280;5663;50.864;12.096;2023-06-10T00:18:38;99221.91;;;17.47;61.59
11212;BME280;5663;50.864;12.096;2023-06-10T00:24:39;99224.47;;;17.24;61.84
11212;BME280;5663;50.864;12.096;2023-06-10T00:27:11;60577.69;;;-142.83;62.10
11212;BME280;5663;50.864;12.096;2023-06-10T00:29:43;99227.47;;;17.20;62.22
11212;BME280;5663;50.864;12.096;2023-06-10T00:32:12;99231.16;;;17.17;62.31
11212;BME280;5663;50.864;12.096;2023-06-10T00:34:42;99233.19;;;17.14;62.45
11212;BME280;5663;50.864;12.096;2023-06-10T00:37:11;99236.91;;;17.11;62.46
11212;BME280;5663;50.864;12.096;2023-06-10T00:39:48;99235.47;;;17.07;62.57
11212;BME280;5663;50.864;12.096;2023-06-10T00:42:19;99235.00;;;17.02;62.58
11212;BME280;5663;50.864;12.096;2023-06-10T00:44:51;99221.56;;;16.84;62.93
11212;BME280;5663;50.864;12.096;2023-06-10T00:47:19;99239.34;;;16.92;62.98
11212;BME280;5663;50.864;12.096;2023-06-10T00:49:49;99235.16;;;16.89;63.09
11212;BME280;5663;50.864;12.096;2023-06-10T00:52:19;99237.91;;;16.88;63.02
11212;BME280;5663;50.864;12.096;2023-06-10T00:55:06;99198.63;;;16.64;63.12
11212;BME280;5663;50.864;12.096;2023-06-10T00:57:54;99214.53;;;16.73;62.96
11212;BME280;5663;50.864;12.096;2023-06-10T01:00:25;99226.31;;;16.79;63.11
11212;BME280;5663;50.864;12.096;2023-06-10T01:03:03;99231.94;;;16.74;63.27
11212;BME280;5663;50.864;12.096;2023-06-10T01:05:41;99224.63;;;16.67;63.17
11212;BME280;5663;50.864;12.096;2023-06-10T01:08:19;99228.22;;;16.66;63.24
11212;BME280;5663;50.864;12.096;2023-06-10T01:10:55;99225.13;;;16.61;63.36
11212;BME280;5663;50.864;12.096;2023-06-10T01:13:28;99231.66;;;16.55;63.60
11212;BME280;5663;50.864;12.096;2023-06-10T01:15:58;99240.66;;;16.53;63.71
11212;BME280;5663;50.864;12.096;2023-06-10T01:18:33;99245.16;;;16.50;63.76
11212;BME280;5663;50.864;12.096;2023-06-10T01:21:04;99234.66;;;16.50;63.68
11212;BME280;5663;50.864;12.096;2023-06-10T01:24:03;99236.09;;;16.55;63.48
11212;BME280;5663;50.864;12.096;2023-06-10T01:27:05;99230.97;;;16.53;63.57
11212;BME280;5663;50.864;12.096;2023-06-10T01:29:43;99233.59;;;16.53;63.31
11212;BME280;5663;50.864;12.096;2023-06-10T01:32:23;99236.91;;;16.55;63.52
11212;BME280;5663;50.864;12.096;2023-06-10T01:35:03;99239.53;;;16.55;63.38
11212;BME280;5663;50.864;12.096;2023-06-10T01:37:40;99235.25;;;16.54;63.62
11212;BME280;5663;50.864;12.096;2023-06-10T01:40:36;99241.09;;;16.58;63.47
11212;BME280;5663;50.864;12.096;2023-06-10T01:43:42;99224.16;;;16.62;63.52
11212;BME280;5663;50.864;12.096;2023-06-10T01:46:46;99237.88;;;16.65;63.93
11212;BME280;5663;50.864;12.096;2023-06-10T01:49:52;99246.00;;;16.62;63.59
11212;BME280;5663;50.864;12.096;2023-06-10T01:52:45;99252.22;;;16.61;64.16
11212;BME280;5663;50.864;12.096;2023-06-10T01:55:50;99244.69;;;16.57;63.96
11212;BME280;5663;50.864;12.096;2023-06-10T01:58:20;99256.41;;;16.53;64.01
11212;BME280;5663;50.864;12.096;2023-06-10T02:00:52;99266.16;;;16.50;64.36
11212;BME280;5663;50.864;12.096;2023-06-10T02:03:23;99270.81;;;16.47;64.53
11212;BME280;5663;50.864;12.096;2023-06-10T02:06:09;99252.69;;;16.33;64.60
11212;BME280;5663;50.864;12.096;2023-06-10T02:08:38;99262.69;;;16.39;64.45
11212;BME280;5663;50.864;12.096;2023-06-10T02:11:09;99276.31;;;16.44;64.52
11212;BME280;5663;50.864;12.096;2023-06-10T02:13:47;99276.31;;;16.44;64.52
11212;BME280;5663;50.864;12.096;2023-06-10T02:16:18;99271.78;;;16.46;63.95
11212;BME280;5663;50.864;12.096;2023-06-10T02:19:08;99268.31;;;16.45;64.51
11212;BME280;5663;50.864;12.096;2023-06-10T02:21:57;99251.72;;;16.45;63.99
11212;BME280;5663;50.864;12.096;2023-06-10T02:24:28;99258.66;;;16.46;64.02
11212;BME280;5663;50.864;12.096;2023-06-10T02:27:03;99262.00;;;16.48;63.95
11212;BME280;5663;50.864;12.096;2023-06-10T02:29:40;99267.72;;;16.42;64.05
11212;BME280;5663;50.864;12.096;2023-06-10T02:32:13;99263.19;;;16.44;64.09
11212;BME280;5663;50.864;12.096;2023-06-10T02:34:42;99264.84;;;16.45;64.06
11212;BME280;5663;50.864;12.096;2023-06-10T02:37:12;99270.34;;;16.42;63.91
11212;BME280;5663;50.864;12.096;2023-06-10T02:39:56;99264.13;;;16.43;63.69
11212;BME280;5663;50.864;12.096;2023-06-10T02:42:32;99265.81;;;16.44;63.54
11212;BME280;5663;50.864;12.096;2023-06-10T02:45:09;99272.00;;;16.43;63.72
11212;BME280;5663;50.864;12.096;2023-06-10T02:47:44;99271.28;;;16.41;63.75
11212;BME280;5663;50.864;12.096;2023-06-10T02:50:18;99269.03;;;16.36;63.57
11212;BME280;5663;50.864;12.096;2023-06-10T02:52:55;99278.44;;;16.39;63.95
11212;BME280;5663;50.864;12.096;2023-06-10T02:55:29;99290.84;;;16.37;64.17
11212;BME280;5663;50.864;12.096;2023-06-10T02:58:00;99295.50;;;16.33;64.44
11212;BME280;5663;50.864;12.096;2023-06-10T03:00:30;99298.47;;;16.29;64.09
11212;BME280;5663;50.864;12.096;2023-06-10T03:03:02;99296.56;;;16.31;64.13
11212;BME280;5663;50.864;12.096;2023-06-10T03:05:33;99294.91;;;16.30;64.64
11212;BME280;5663;50.864;12.096;2023-06-10T03:08:06;99302.78;;;16.30;64.77
11212;BME280;5663;50.864;12.096;2023-06-10T03:10:36;99305.53;;;16.28;64.54
11212;BME280;5663;50.864;12.096;2023-06-10T03:13:09;99309.06;;;16.27;64.78
11212;BME280;5663;50.864;12.096;2023-06-10T03:15:37;99294.38;;;16.13;64.58
11212;BME280;5663;50.864;12.096;2023-06-10T03:18:07;99316.25;;;16.25;64.51
11212;BME280;5663;50.864;12.096;2023-06-10T03:20:36;99318.03;;;16.24;64.21
11212;BME280;5663;50.864;12.096;2023-06-10T03:23:16;99318.88;;;16.25;64.58
11212;BME280;5663;50.864;12.096;2023-06-10T03:25:51;99310.72;;;16.17;64.74
11212;BME280;5663;50.864;12.096;2023-06-10T03:28:40;99324.94;;;16.25;65.42
11212;BME280;5663;50.864;12.096;2023-06-10T03:31:15;99324.47;;;16.32;65.28
11212;BME280;5663;50.864;12.096;2023-06-10T03:33:46;99330.94;;;16.39;65.29
11212;BME280;5663;50.864;12.096;2023-06-10T03:37:13;99332.75;;;16.49;65.14
11212;BME280;5663;50.864;12.096;2023-06-10T03:39:44;99328.72;;;16.57;64.38
11212;BME280;5663;50.864;12.096;2023-06-10T03:42:12;99325.50;;;16.64;64.24
11212;BME280;5663;50.864;12.096;2023-06-10T03:45:08;99323.34;;;16.69;64.27
11212;BME280;5663;50.864;12.096;2023-06-10T03:48:00;99311.53;;;16.64;63.96
11212;BME280;5663;50.864;12.096;2023-06-10T03:50:42;99333.16;;;16.79;64.12
11212;BME280;5663;50.864;12.096;2023-06-10T03:53:43;99318.50;;;16.76;63.71
11212;BME280;5663;50.864;12.096;2023-06-10T03:56:14;99329.84;;;16.88;64.06
11212;BME280;5663;50.864;12.096;2023-06-10T03:58:52;99335.69;;;16.91;64.59
11212;BME280;5663;50.864;12.096;2023-06-10T04:01:26;99340.59;;;16.96;64.00
11212;BME280;5663;50.864;12.096;2023-06-10T04:03:55;99329.84;;;16.99;63.78
11212;BME280;5663;50.864;12.096;2023-06-10T04:06:32;99324.84;;;16.96;64.03
11212;BME280;5663;50.864;12.096;2023-06-10T04:09:10;99334.63;;;17.05;64.16
11212;BME280;5663;50.864;12.096;2023-06-10T04:11:39;99345.38;;;17.13;63.91
11212;BME280;5663;50.864;12.096;2023-06-10T04:17:04;99338.44;;;17.23;63.88
11212;BME280;5663;50.864;12.096;2023-06-10T04:20:00;99339.34;;;17.45;63.57
11212;BME280;5663;50.864;12.096;2023-06-10T04:22:46;99329.06;;;17.53;62.65
11212;BME280;5663;50.864;12.096;2023-06-10T04:28:49;99339.25;;;17.90;61.96
11212;BME280;5663;50.864;12.096;2023-06-10T04:42:58;99336.13;;;17.96;61.71
11212;BME280;5663;50.864;12.096;2023-06-10T04:45:28;99342.91;;;17.98;61.88
11212;BME280;5663;50.864;12.096;2023-06-10T04:48:02;99344.97;;;17.95;62.01
11212;BME280;5663;50.864;12.096;2023-06-10T04:52:58;99344.47;;;18.01;62.26
11212;BME280;5663;50.864;12.096;2023-06-10T04:54:33;99353.66;;;18.07;62.09
11212;BME280;5663;50.864;12.096;2023-06-10T04:57:07;99333.38;;;17.97;62.05
11212;BME280;5663;50.864;12.096;2023-06-10T04:59:38;99350.38;;;18.14;61.98
11212;BME280;5663;50.864;12.096;2023-06-10T05:02:11;99356.81;;;18.21;62.19
11212;BME280;5663;50.864;12.096;2023-06-10T05:05:04;99352.34;;;18.33;62.74
11212;BME280;5663;50.864;12.096;2023-06-10T05:08:18;99297.28;;;18.30;62.68
11212;BME280;5663;50.864;12.096;2023-06-10T05:10:47;99356.88;;;19.25;61.32
11212;BME280;5663;50.864;12.096;2023-06-10T05:13:30;99353.97;;;19.97;60.51
11212;BME280;5663;50.864;12.096;2023-06-10T05:16:04;99343.59;;;20.91;58.35
11212;BME280;5663;50.864;12.096;2023-06-10T05:19:01;99351.09;;;22.14;55.30
11212;BME280;5663;50.864;12.096;2023-06-10T05:21:32;99343.31;;;23.08;53.02
11212;BME280;5663;50.864;12.096;2023-06-10T05:24:04;99341.25;;;23.95;50.64
11212;BME280;5663;50.864;12.096;2023-06-10T05:27:25;99342.66;;;24.96;48.25
11212;BME280;5663;50.864;12.096;2023-06-10T05:30:23;99345.94;;;25.85;45.02
11212;BME280;5663;50.864;12.096;2023-06-10T05:33:03;99350.78;;;26.27;44.97
11212;BME280;5663;50.864;12.096;2023-06-10T05:35:35;99345.56;;;26.71;44.35
11212;BME280;5663;50.864;12.096;2023-06-10T05:38:28;99352.38;;;27.03;43.09
11212;BME280;5663;50.864;12.096;2023-06-10T05:41:03;99348.34;;;27.37;42.49
11212;BME280;5663;50.864;12.096;2023-06-10T05:43:31;99351.66;;;27.75;41.69
11212;BME280;5663;50.864;12.096;2023-06-10T05:46:02;99348.31;;;28.10;41.02
11212;BME280;5663;50.864;12.096;2023-06-10T05:49:02;99347.25;;;28.32;40.01
11212;BME280;5663;50.864;12.096;2023-06-10T05:51:35;99349.81;;;28.40;40.30
11212;BME280;5663;50.864;12.096;2023-06-10T05:54:20;99352.31;;;27.99;39.90
11212;BME280;5663;50.864;12.096;2023-06-10T05:57:16;99331.31;;;27.60;39.74
11212;BME280;5663;50.864;12.096;2023-06-10T06:09:07;99355.38;;;27.74;41.65
11212;BME280;5663;50.864;12.096;2023-06-10T06:11:42;99320.13;;;27.86;40.55
11212;BME280;5663;50.864;12.096;2023-06-10T06:14:25;99361.78;;;28.44;40.19
11212;BME280;5663;50.864;12.096;2023-06-10T06:17:26;99355.88;;;28.77;39.74
11212;BME280;5663;50.864;12.096;2023-06-10T06:20:27;99359.25;;;28.92;39.94
11212;BME280;5663;50.864;12.096;2023-06-10T06:50:39;99365.09;;;27.46;42.20
11212;BME280;5663;50.864;12.096;2023-06-10T06:53:09;99367.88;;;26.93;42.38
11212;BME280;5663;50.864;12.096;2023-06-10T06:56:05;99363.34;;;26.41;44.04
11212;BME280;5663;50.864;12.096;2023-06-10T06:58:43;99350.72;;;25.97;44.29
11212;BME280;5663;50.864;12.096;2023-06-10T07:01:46;99375.81;;;25.72;44.97
11212;BME280;5663;50.864;12.096;2023-06-10T07:10:02;99381.75;;;24.95;46.87
11212;BME280;5663;50.864;12.096;2023-06-10T07:12:32;99385.44;;;24.86;47.39
11212;BME280;5663;50.864;12.096;2023-06-10T07:15:15;99388.44;;;24.75;47.89
11212;BME280;5663;50.864;12.096;2023-06-10T07:17:46;99399.75;;;24.61;48.37
11212;BME280;5663;50.864;12.096;2023-06-10T07:20:16;99386.81;;;24.49;48.87
11212;BME280;5663;50.864;12.096;2023-06-10T07:23:10;99397.63;;;24.40;49.03
11212;BME280;5663;50.864;12.096;2023-06-10T07:30:17;99396.38;;;23.93;49.54
11212;BME280;5663;50.864;12.096;2023-06-10T07:33:01;99397.97;;;23.70;50.57
11212;BME280;5663;50.864;12.096;2023-06-10T07:38:35;99383.16;;;23.59;51.07
11212;BME280;5663;50.864;12.096;2023-06-10T08:03:13;99370.03;;;22.89;53.50
11212;BME280;5663;50.864;12.096;2023-06-10T08:06:07;99389.41;;;23.07;53.18
11212;BME280;5663;50.864;12.096;2023-06-10T08:11:46;99397.22;;;23.17;54.28
11212;BME280;5663;50.864;12.096;2023-06-10T08:15:01;99391.56;;;23.38;53.65
11212;BME280;5663;50.864;12.096;2023-06-10T08:20:24;99384.94;;;23.50;52.85
11212;BME280;5663;50.864;12.096;2023-06-10T08:25:40;99387.34;;;23.70;54.06
11212;BME280;5663;50.864;12.096;2023-06-10T08:33:27;99399.41;;;24.15;52.90
11212;BME280;5663;50.864;12.096;2023-06-10T08:36:16;99396.06;;;24.37;53.51
11212;BME280;5663;50.864;12.096;2023-06-10T08:48:05;99385.75;;;25.47;50.09
11212;BME280;5663;50.864;12.096;2023-06-10T08:50:44;99387.63;;;25.69;51.16
11212;BME280;5663;50.864;12.096;2023-06-10T08:59:29;99383.81;;;26.26;49.55
11212;BME280;5663;50.864;12.096;2023-06-10T09:02:36;99391.22;;;26.62;48.02
11212;BME280;5663;50.864;12.096;2023-06-10T09:05:15;99399.13;;;26.70;48.03
11212;BME280;5663;50.864;12.096;2023-06-10T09:08:24;99386.91;;;26.90;49.15
11212;BME280;5663;50.864;12.096;2023-06-10T09:16:40;99381.34;;;27.66;46.77
11212;BME280;5663;50.864;12.096;2023-06-10T09:19:19;99372.88;;;27.77;45.91
11212;BME280;5663;50.864;12.096;2023-06-10T09:22:10;99366.03;;;27.89;46.32
11212;BME280;5663;50.864;12.096;2023-06-10T09:25:07;99379.63;;;28.16;45.97
11212;BME280;5663;50.864;12.096;2023-06-10T09:27:52;99382.75;;;28.19;45.02
11212;BME280;5663;50.864;12.096;2023-06-10T09:33:49;99379.00;;;28.35;45.36
11212;BME280;5663;50.864;12.096;2023-06-10T09:36:25;99389.78;;;28.42;44.39
11212;BME280;5663;50.864;12.096;2023-06-10T09:39:00;99387.28;;;28.40;44.04
11212;BME280;5663;50.864;12.096;2023-06-10T09:42:27;99393.09;;;28.44;44.23
11212;BME280;5663;50.864;12.096;2023-06-10T09:45:48;99390.72;;;28.56;43.46
11212;BME280;5663;50.864;12.096;2023-06-10T09:49:05;99358.97;;;28.53;43.26
11212;BME280;5663;50.864;12.096;2023-06-10T09:51:34;99375.53;;;28.63;44.85
11212;BME280;5663;50.864;12.096;2023-06-10T09:54:42;99371.13;;;28.77;44.14
11212;BME280;5663;50.864;12.096;2023-06-10T09:57:13;99372.91;;;28.98;44.10
11212;BME280;5663;50.864;12.096;2023-06-10T10:00:41;99381.28;;;29.23;45.01
11212;BME280;5663;50.864;12.096;2023-06-10T10:03:24;99370.50;;;29.09;42.94
11212;BME280;5663;50.864;12.096;2023-06-10T10:09:12;99379.56;;;29.50;43.17
11212;BME280;5663;50.864;12.096;2023-06-10T10:11:55;99371.59;;;29.63;42.30
11212;BME280;5663;50.864;12.096;2023-06-10T10:14:38;99366.63;;;29.60;42.60
11212;BME280;5663;50.864;12.096;2023-06-10T10:17:17;99362.13;;;29.74;42.91
11212;BME280;5663;50.864;12.096;2023-06-10T10:20:33;99353.47;;;29.78;42.70
11212;BME280;5663;50.864;12.096;2023-06-10T10:23:07;99347.50;;;29.83;42.65
11212;BME280;5663;50.864;12.096;2023-06-10T10:28:47;99356.81;;;30.07;41.89
11212;BME280;5663;50.864;12.096;2023-06-10T10:31:24;99348.63;;;30.28;42.85
11212;BME280;5663;50.864;12.096;2023-06-10T10:37:28;99345.88;;;29.88;42.15
11212;BME280;5663;50.864;12.096;2023-06-10T10:40:18;99338.25;;;29.85;42.37
11212;BME280;5663;50.864;12.096;2023-06-10T10:50:45;99333.69;;;29.73;41.36
11212;BME280;5663;50.864;12.096;2023-06-10T10:53:44;99340.72;;;29.32;42.88
11212;BME280;5663;50.864;12.096;2023-06-10T11:00:10;99335.88;;;29.08;44.78
11212;BME280;5663;50.864;12.096;2023-06-10T11:02:43;99319.06;;;29.27;43.47
11212;BME280;5663;50.864;12.096;2023-06-10T11:05:39;99326.69;;;29.85;43.60
11212;BME280;5663;50.864;12.096;2023-06-10T11:12:22;99331.25;;;30.57;42.04
11212;BME280;5663;50.864;12.096;2023-06-10T11:17:27;99302.97;;;30.15;39.87
11212;BME280;5663;50.864;12.096;2023-06-10T11:21:20;99316.00;;;30.45;38.73
11212;BME280;5663;50.864;12.096;2023-06-10T11:24:23;99319.91;;;30.35;37.59
11212;BME280;5663;50.864;12.096;2023-06-10T11:27:26;99310.63;;;30.18;37.64
11212;BME280;5663;50.864;12.096;2023-06-10T11:31:03;99313.91;;;30.13;37.26
11212;BME280;5663;50.864;12.096;2023-06-10T11:33:41;99309.81;;;30.37;38.41
11212;BME280;5663;50.864;12.096;2023-06-10T11:36:22;99272.59;;;30.61;38.14
11212;BME280;5663;50.864;12.096;2023-06-10T11:39:04;99304.03;;;31.25;37.42
11212;BME280;5663;50.864;12.096;2023-06-10T11:41:50;99280.16;;;31.49;35.84
11212;BME280;5663;50.864;12.096;2023-06-10T11:44:43;99308.06;;;31.79;34.34
11212;BME280;5663;50.864;12.096;2023-06-10T11:48:33;99299.06;;;31.99;34.88
11212;BME280;5663;50.864;12.096;2023-06-10T11:54:13;99304.94;;;31.51;32.68
11212;BME280;5663;50.864;12.096;2023-06-10T11:56:45;99279.88;;;31.12;32.09
11212;BME280;5663;50.864;12.096;2023-06-10T11:59:16;99303.63;;;31.22;32.83
11212;BME280;5663;50.864;12.096;2023-06-10T12:02:14;99315.44;;;31.14;32.07
11212;BME280;5663;50.864;12.096;2023-06-10T12:14:04;99303.50;;;31.86;33.14
11212;BME280;5663;50.864;12.096;2023-06-10T12:20:28;99297.25;;;31.93;34.33
11212;BME280;5663;50.864;12.096;2023-06-10T12:26:35;99285.72;;;32.10;33.06
11212;BME280;5663;50.864;12.096;2023-06-10T12:36:16;99288.53;;;31.97;32.54
11212;BME280;5663;50.864;12.096;2023-06-10T12:39:17;99284.34;;;31.70;31.77
11212;BME280;5663;50.864;12.096;2023-06-10T12:41:47;99261.59;;;31.40;32.51
11212;BME280;5663;50.864;12.096;2023-06-10T12:45:08;99278.84;;;31.13;31.47
11212;BME280;5663;50.864;12.096;2023-06-10T12:47:41;99286.34;;;31.04;32.37
11212;BME280;5663;50.864;12.096;2023-06-10T12:50:14;99284.41;;;31.18;33.57
11212;BME280;5663;50.864;12.096;2023-06-10T12:52:54;99279.69;;;31.52;33.88
11212;BME280;5663;50.864;12.096;2023-06-10T12:55:38;99281.78;;;31.81;32.92
11212;BME280;5663;50.864;12.096;2023-06-10T12:58:15;99281.44;;;32.03;32.36
11212;BME280;5663;50.864;12.096;2023-06-10T13:01:32;99281.16;;;32.36;32.80
11212;BME280;5663;50.864;12.096;2023-06-10T13:04:50;99293.25;;;32.70;31.73
11212;BME280;5663;50.864;12.096;2023-06-10T13:07:25;99286.50;;;32.79;31.50
11212;BME280;5663;50.864;12.096;2023-06-10T13:10:00;99289.97;;;32.86;31.52
11212;BME280;5663;50.864;12.096;2023-06-10T13:13:05;99288.91;;;32.87;31.06
11212;BME280;5663;50.864;12.096;2023-06-10T13:15:40;99282.97;;;33.04;31.09
11212;BME280;5663;50.864;12.096;2023-06-10T13:18:40;99283.41;;;33.31;31.23
11212;BME280;5663;50.864;12.096;2023-06-10T13:28:40;99269.03;;;33.37;30.99
11212;BME280;5663;50.864;12.096;2023-06-10T13:31:22;99261.88;;;33.61;31.85
11212;BME280;5663;50.864;12.096;2023-06-10T13:34:35;99271.72;;;33.67;30.13
11212;BME280;5663;50.864;12.096;2023-06-10T13:37:12;99278.66;;;33.45;29.93
11212;BME280;5663;50.864;12.096;2023-06-10T13:39:49;99268.97;;;33.25;30.35
11212;BME280;5663;50.864;12.096;2023-06-10T13:42:34;99224.84;;;32.71;30.39
11212;BME280;5663;50.864;12.096;2023-06-10T13:45:10;99280.56;;;32.96;30.87
11212;BME280;5663;50.864;12.096;2023-06-10T13:47:57;99267.22;;;33.01;31.28
11212;BME280;5663;50.864;12.096;2023-06-10T13:50:26;99260.59;;;33.15;30.85
11212;BME280;5663;50.864;12.096;2023-06-10T13:53:18;99258.94;;;33.32;30.93
11212;BME280;5663;50.864;12.096;2023-06-10T13:55:53;99252.16;;;33.42;30.19
11212;BME280;5663;50.864;12.096;2023-06-10T13:59:15;99229.22;;;33.51;31.52
11212;BME280;5663;50.864;12.096;2023-06-10T14:02:03;99248.63;;;33.59;30.06
11212;BME280;5663;50.864;12.096;2023-06-10T14:04:38;99244.22;;;33.47;28.74
11212;BME280;5663;50.864;12.096;2023-06-10T14:07:24;99251.97;;;33.55;29.31
11212;BME280;5663;50.864;12.096;2023-06-10T14:10:11;99239.19;;;33.20;29.73
11212;BME280;5663;50.864;12.096;2023-06-10T14:12:49;99245.03;;;33.17;30.25
11212;BME280;5663;50.864;12.096;2023-06-10T14:18:47;99248.72;;;32.86;30.24
11212;BME280;5663;50.864;12.096;2023-06-10T14:21:25;99241.78;;;32.60;29.64
11212;BME280;5663;50.864;12.096;2023-06-10T14:24:16;99264.28;;;32.22;30.18
11212;BME280;5663;50.864;12.096;2023-06-10T14:26:56;99258.78;;;31.92;30.35
11212;BME280;5663;50.864;12.096;2023-06-10T14:32:32;99248.16;;;31.27;32.28
11212;BME280;5663;50.864;12.096;2023-06-10T14:35:22;99245.41;;;31.09;32.55
11212;BME280;5663;50.864;12.096;2023-06-10T14:38:07;99256.81;;;30.98;33.31
11212;BME280;5663;50.864;12.096;2023-06-10T14:40:45;99234.50;;;30.90;32.87
11212;BME280;5663;50.864;12.096;2023-06-10T14:43:13;99253.50;;;30.96;32.44
11212;BME280;5663;50.864;12.096;2023-06-10T14:48:32;99212.44;;;30.88;33.85
11212;BME280;5663;50.864;12.096;2023-06-10T14:51:37;99253.56;;;31.34;33.73
11212;BME280;5663;50.864;12.096;2023-06-10T14:55:04;99245.78;;;31.51;33.37
11212;BME280;5663;50.864;12.096;2023-06-10T14:58:01;99238.25;;;31.66;32.85
11212;BME280;5663;50.864;12.096;2023-06-10T15:00:59;99243.06;;;31.89;33.18
11212;BME280;5663;50.864;12.096;2023-06-10T15:03:35;99249.84;;;31.92;32.87
11212;BME280;5663;50.864;12.096;2023-06-10T15:06:47;99254.03;;;31.87;32.07
11212;BME280;5663;50.864;12.096;2023-06-10T15:13:28;99244.41;;;31.73;33.21
11212;BME280;5663;50.864;12.096;2023-06-10T15:15:57;99237.56;;;31.71;33.01
11212;BME280;5663;50.864;12.096;2023-06-10T15:18:34;99243.13;;;31.76;33.00
11212;BME280;5663;50.864;12.096;2023-06-10T15:24:32;99244.94;;;31.82;32.02
11212;BME280;5663;50.864;12.096;2023-06-10T15:27:27;99242.03;;;31.83;32.16
11212;BME280;5663;50.864;12.096;2023-06-10T15:30:05;99241.78;;;31.92;31.97
11212;BME280;5663;50.864;12.096;2023-06-10T15:32:33;99241.16;;;31.96;32.21
11212;BME280;5663;50.864;12.096;2023-06-10T15:35:05;99226.78;;;31.77;32.13
11212;BME280;5663;50.864;12.096;2023-06-10T15:37:49;99235.13;;;31.69;31.09
11212;BME280;5663;50.864;12.096;2023-06-10T15:40:34;99238.19;;;31.73;31.36
11212;BME280;5663;50.864;12.096;2023-06-10T15:43:10;99234.69;;;31.72;30.61
11212;BME280;5663;50.864;12.096;2023-06-10T15:46:03;99234.88;;;31.71;29.50
11212;BME280;5663;50.864;12.096;2023-06-10T15:48:53;99241.31;;;31.70;30.02
11212;BME280;5663;50.864;12.096;2023-06-10T15:51:31;99242.38;;;31.69;29.65
11212;BME280;5663;50.864;12.096;2023-06-10T15:54:25;99253.97;;;31.62;30.01
11212;BME280;5663;50.864;12.096;2023-06-10T15:56:58;99249.94;;;31.47;30.65
11212;BME280;5663;50.864;12.096;2023-06-10T15:59:37;99230.97;;;31.42;30.83
11212;BME280;5663;50.864;12.096;2023-06-10T16:05:14;99239.16;;;31.53;31.16
11212;BME280;5663;50.864;12.096;2023-06-10T16:07:42;99244.06;;;31.63;31.63
11212;BME280;5663;50.864;12.096;2023-06-10T16:11:03;99245.66;;;31.71;31.16
11212;BME280;5663;50.864;12.096;2023-06-10T16:13:58;99237.19;;;31.67;31.10
11212;BME280;5663;50.864;12.096;2023-06-10T16:17:00;99242.41;;;31.62;31.09
11212;BME280;5663;50.864;12.096;2023-06-10T16:19:36;99237.66;;;31.64;32.19
11212;BME280;5663;50.864;12.096;2023-06-10T16:22:11;99244.44;;;31.67;31.81
11212;BME280;5663;50.864;12.096;2023-06-10T16:25:14;99244.25;;;31.68;31.64
11212;BME280;5663;50.864;12.096;2023-06-10T16:28:15;99249.09;;;31.53;30.66
11212;BME280;5663;50.864;12.096;2023-06-10T16:37:05;99245.91;;;31.31;31.23
11212;BME280;5663;50.864;12.096;2023-06-10T16:39:44;99245.16;;;31.17;31.53
11212;BME280;5663;50.864;12.096;2023-06-10T16:42:12;99243.13;;;31.06;30.90
11212;BME280;5663;50.864;12.096;2023-06-10T16:51:50;99248.59;;;30.79;32.13
11212;BME280;5663;50.864;12.096;2023-06-10T16:54:26;99264.06;;;30.84;32.06
11212;BME280;5663;50.864;12.096;2023-06-10T16:59:29;99258.75;;;30.77;32.25
11212;BME280;5663;50.864;12.096;2023-06-10T17:00:40;99247.41;;;30.55;32.10
11212;BME280;5663;50.864;12.096;2023-06-10T17:03:24;99250.34;;;30.40;33.06
11212;BME280;5663;50.864;12.096;2023-06-10T17:05:57;99253.25;;;30.32;33.01
11212;BME280;5663;50.864;12.096;2023-06-10T17:08:38;99262.31;;;30.31;33.18
11212;BME280;5663;50.864;12.096;2023-06-10T17:18:50;99287.09;;;30.20;33.93
11212;BME280;5663;50.864;12.096;2023-06-10T17:21:32;99273.47;;;29.82;33.82
11212;BME280;5663;50.864;12.096;2023-06-10T17:24:04;99286.66;;;29.70;34.61
11212;BME280;5663;50.864;12.096;2023-06-10T17:26:33;99284.16;;;29.75;34.52
11212;BME280;5663;50.864;12.096;2023-06-10T17:29:50;99243.25;;;29.40;34.74
11212;BME280;5663;50.864;12.096;2023-06-10T17:32:33;99285.19;;;29.67;34.39
11212;BME280;5663;50.864;12.096;2023-06-10T17:35:04;99289.91;;;29.59;34.89
11212;BME280;5663;50.864;12.096;2023-06-10T17:37:33;99294.81;;;29.49;34.72
11212;BME280;5663;50.864;12.096;2023-06-10T17:52:26;99290.00;;;29.24;36.84
11212;BME280;5663;50.864;12.096;2023-06-10T17:55:09;99300.50;;;29.19;36.25
11212;BME280;5663;50.864;12.096;2023-06-10T17:58:19;99301.31;;;29.13;36.22
11212;BME280;5663;50.864;12.096;2023-06-10T18:01:19;99303.34;;;29.11;37.07
11212;BME280;5663;50.864;12.096;2023-06-10T18:03:54;99310.13;;;29.07;37.29
11212;BME280;5663;50.864;12.096;2023-06-10T18:06:40;99318.56;;;29.04;37.41
11212;BME280;5663;50.864;12.096;2023-06-10T18:12:43;99318.84;;;28.81;37.67
11212;BME280;5663;50.864;12.096;2023-06-10T18:16:12;99319.97;;;28.65;37.81
11212;BME280;5663;50.864;12.096;2023-06-10T18:28:31;99326.44;;;28.28;40.28
11212;BME280;5663;50.864;12.096;2023-06-10T18:31:01;99323.47;;;28.16;40.42
11212;BME280;5663;50.864;12.096;2023-06-10T18:36:16;99298.22;;;27.75;41.39
11212;BME280;5663;50.864;12.096;2023-06-10T18:38:52;99321.44;;;27.75;41.67
11212;BME280;5663;50.864;12.096;2023-06-10T18:41:24;99330.69;;;27.58;42.04
11212;BME280;5663;50.864;12.096;2023-06-10T18:43:57;99337.44;;;27.54;42.42
11212;BME280;5663;50.864;12.096;2023-06-10T18:46:35;99344.28;;;27.41;42.21